地図

経路データ

SID SEASON NUMBER BASIN SUBBASIN NAME ISO_TIME NATURE LAT LON WMO_WIND WMO_PRES WMO_AGENCY TRACK_TYPE DIST2LAND LANDFALL IFLAG USA_AGENCY USA_ATCF_ID USA_LAT USA_LON USA_RECORD USA_STATUS USA_WIND USA_PRES USA_SSHS USA_R34_NE USA_R34_SE USA_R34_SW USA_R34_NW USA_R50_NE USA_R50_SE USA_R50_SW USA_R50_NW USA_R64_NE USA_R64_SE USA_R64_SW USA_R64_NW USA_POCI USA_ROCI USA_RMW USA_EYE TOKYO_LAT TOKYO_LON TOKYO_GRADE TOKYO_WIND TOKYO_PRES TOKYO_R50_DIR TOKYO_R50_LONG TOKYO_R50_SHORT TOKYO_R30_DIR TOKYO_R30_LONG TOKYO_R30_SHORT TOKYO_LAND CMA_LAT CMA_LON CMA_CAT CMA_WIND CMA_PRES HKO_LAT HKO_LON HKO_CAT HKO_WIND HKO_PRES NEWDELHI_LAT NEWDELHI_LON NEWDELHI_GRADE NEWDELHI_WIND NEWDELHI_PRES NEWDELHI_CI NEWDELHI_DP NEWDELHI_POCI REUNION_LAT REUNION_LON REUNION_TYPE REUNION_WIND REUNION_PRES REUNION_TNUM REUNION_CI REUNION_RMW REUNION_R34_NE REUNION_R34_SE REUNION_R34_SW REUNION_R34_NW REUNION_R50_NE REUNION_R50_SE REUNION_R50_SW REUNION_R50_NW REUNION_R64_NE REUNION_R64_SE REUNION_R64_SW REUNION_R64_NW BOM_LAT BOM_LON BOM_TYPE BOM_WIND BOM_PRES BOM_TNUM BOM_CI BOM_RMW BOM_R34_NE BOM_R34_SE BOM_R34_SW BOM_R34_NW BOM_R50_NE BOM_R50_SE BOM_R50_SW BOM_R50_NW BOM_R64_NE BOM_R64_SE BOM_R64_SW BOM_R64_NW BOM_ROCI BOM_POCI BOM_EYE BOM_POS_METHOD BOM_PRES_METHOD NADI_LAT NADI_LON NADI_CAT NADI_WIND NADI_PRES WELLINGTON_LAT WELLINGTON_LON WELLINGTON_WIND WELLINGTON_PRES DS824_LAT DS824_LON DS824_STAGE DS824_WIND DS824_PRES TD9636_LAT TD9636_LON TD9636_STAGE TD9636_WIND TD9636_PRES TD9635_LAT TD9635_LON TD9635_WIND TD9635_PRES TD9635_ROCI NEUMANN_LAT NEUMANN_LON NEUMANN_CLASS NEUMANN_WIND NEUMANN_PRES MLC_LAT MLC_LON MLC_CLASS MLC_WIND MLC_PRES USA_GUST BOM_GUST BOM_GUST_PER REUNION_GUST REUNION_GUST_PER USA_SEAHGT USA_SEARAD_NE USA_SEARAD_SE USA_SEARAD_SW USA_SEARAD_NW STORM_SPEED STORM_DIR
1991274N14149 1991 74 WP MM ORCHID 1991-10-01 00:00:00 NR 13.6000 149.200 main 1770 1770 O_____________ jtwc_wp WP231991 13.6000 149.200 15 -1 12 350
1991274N14149 1991 74 WP MM ORCHID 1991-10-01 03:00:00 NR 14.1801 149.095 main 1835 1835 P_____________ WP231991 14.1801 149.095 15 -1 11 350
1991274N14149 1991 74 WP MM ORCHID 1991-10-01 06:00:00 NR 14.7000 149.000 main 1890 1890 O_____________ jtwc_wp WP231991 14.7000 149.000 15 -1 10 349
1991274N14149 1991 74 WP MM ORCHID 1991-10-01 09:00:00 NR 15.1223 148.902 main 1933 1933 P_____________ WP231991 15.1223 148.902 15 -1 9 340
1991274N14149 1991 74 WP MM ORCHID 1991-10-01 12:00:00 NR 15.5000 148.700 main 1976 1976 O_____________ jtwc_wp WP231991 15.5000 148.700 15 -1 10 324
1991274N14149 1991 74 WP MM ORCHID 1991-10-01 15:00:00 NR 15.9227 148.288 main 2018 2018 P_____________ WP231991 15.9227 148.288 15 -1 12 313
1991274N14149 1991 74 WP MM ORCHID 1991-10-01 18:00:00 NR 16.3000 147.800 main 2061 2061 O_____________ jtwc_wp WP231991 16.3000 147.800 15 -1 11 307
1991274N14149 1991 74 WP MM ORCHID 1991-10-01 21:00:00 NR 16.5799 147.392 main 2094 2094 P_____________ WP231991 16.5799 147.392 17 -1 9 303
1991274N14149 1991 74 WP MM ORCHID 1991-10-02 00:00:00 NR 16.8000 147.000 main 2117 2106 O_____________ jtwc_wp WP231991 16.8000 147.000 20 -1 9 299
1991274N14149 1991 74 WP MM ORCHID 1991-10-02 03:00:00 NR 17.0074 146.600 main 2106 2073 P_____________ WP231991 17.0074 146.600 22 -1 9 298
1991274N14149 1991 74 WP MM ORCHID 1991-10-02 06:00:00 NR 17.2000 146.200 main 2073 2040 O_____________ jtwc_wp WP231991 17.2000 146.200 25 -1 8 298
1991274N14149 1991 74 WP MM ORCHID 1991-10-02 09:00:00 NR 17.3998 145.822 main 2040 2007 P_____________ WP231991 17.3998 145.822 25 -1 9 298
1991274N14149 1991 74 WP MM ORCHID 1991-10-02 12:00:00 NR 17.6000 145.400 main 2007 1964 O_____________ jtwc_wp WP231991 17.6000 145.400 25 -1 10 294
1991274N14149 1991 74 WP MM ORCHID 1991-10-02 15:00:00 NR 17.8151 144.858 main 1964 1917 P_____________ WP231991 17.8151 144.858 25 -1 11 291
1991274N14149 1991 74 WP MM ORCHID 1991-10-02 18:00:00 NR 18.0000 144.300 main 1917 1889 O_____________ jtwc_wp WP231991 18.0000 144.300 25 -1 10 287
1991274N14149 1991 74 WP MM ORCHID 1991-10-02 21:00:00 NR 18.1073 143.835 main 1885 1836 P_____________ WP231991 18.1073 143.835 27 -1 12 285
1991274N14149 1991 74 WP MM ORCHID 1991-10-03 00:00:00 TS 18.3000 143.100 1004 tokyo main 1836 1799 OOO___________ jtwc_wp WP231991 18.2000 143.400 30 -1 18.5000 142.500 2 1004 0 0 0 18.5000 142.500 1 29 1000 14 283
1991274N14149 1991 74 WP MM ORCHID 1991-10-03 03:00:00 TS 18.4251 142.399 main 1799 1767 PPP___________ WP231991 18.3422 142.972 30 -1 18.5081 141.825 2 1002 0 0 18.5081 141.825 1 29 998 13 279
1991274N14149 1991 74 WP MM ORCHID 1991-10-03 06:00:00 TS 18.5000 141.720 1000 tokyo main 1764 1739 OOO___________ jtwc_wp WP231991 18.5000 142.500 30 -1 18.5000 141.200 2 1000 0 0 0 18.5000 141.200 1 29 996 13 275
1991274N14149 1991 74 WP MM ORCHID 1991-10-03 09:00:00 TS 18.5374 141.080 main 1739 1702 PPP___________ WP231991 18.6576 141.915 32 -1 18.4773 140.662 2 1000 0 0 18.4773 140.662 1 29 996 11 274
1991274N14149 1991 74 WP MM ORCHID 1991-10-03 12:00:00 TS 18.5769 140.569 1000 tokyo main 1702 1665 OOOO__________ jtwc_wp WP231991 18.8000 141.300 35 0 18.5000 140.200 2 1000 0 0 0 18.5000 140.200 1 29 996 18.3000 140.600 TD 25 1000 9 279
1991274N14149 1991 74 WP MM ORCHID 1991-10-03 15:00:00 TS 18.6813 140.106 main 1665 1635 PPPP__________ WP231991 18.9147 140.750 35 0 18.6348 139.785 2 999 0 0 18.6348 139.785 1 29 995 18.4002 140.105 TD 25 1000 9 284
1991274N14149 1991 74 WP MM ORCHID 1991-10-03 18:00:00 TS 18.7933 139.653 998 tokyo main 1635 1598 OOOO__________ jtwc_wp WP231991 19.0000 140.200 35 0 18.8000 139.400 2 998 0 0 0 18.8000 139.400 1 29 995 18.5000 139.600 TD 25 1000 9 283
1991274N14149 1991 74 WP MM ORCHID 1991-10-03 21:00:00 TS 18.8773 139.182 main 1598 1572 PPPP__________ WP231991 19.0645 139.645 35 0 18.9224 139.008 2 996 0 0 18.9225 138.993 1 29 995 18.6000 139.085 TD 27 997 9 280
1991274N14149 1991 74 WP MM ORCHID 1991-10-04 00:00:00 TS 18.9500 138.700 35 994 tokyo main 1562 1537 OOOO__________ jtwc_wp WP231991 19.1000 139.000 35 0 19.0000 138.600 3 35 994 0 9 240 240 0 19.0000 138.600 1 29 995 18.7000 138.600 TD 30 995 10 276
1991274N14149 1991 74 WP MM ORCHID 1991-10-04 03:00:00 TS 18.9827 138.157 main 1537 1511 PPPP__________ WP231991 19.1087 138.060 37 0 19.0075 138.142 3 35 993 0 9 240 240 19.0073 138.257 1 33 993 18.8074 138.170 TD 32 992 10 273
1991274N14149 1991 74 WP MM ORCHID 1991-10-04 06:00:00 TS 19.0000 137.675 35 992 tokyo main 1511 1483 OOOO__________ jtwc_wp WP231991 19.1000 137.300 40 0 19.0000 137.700 3 35 992 0 9 240 240 0 19.0000 137.900 2 38 992 18.9000 137.800 TS 35 990 8 274
1991274N14149 1991 74 WP MM ORCHID 1991-10-04 09:00:00 TS 19.0392 137.355 main 1483 1462 PPPP__________ WP231991 19.0993 137.218 40 0 19.0499 137.313 3 37 991 0 9 240 240 19.0502 137.420 2 38 991 18.9574 137.470 TS 35 990 5 278
1991274N14149 1991 74 WP MM ORCHID 1991-10-04 12:00:00 TS 19.0750 137.125 40 990 tokyo main 1462 1443 OOOO__________ jtwc_wp WP231991 19.1000 137.300 40 0 19.1000 137.000 3 40 990 0 9 240 240 0 19.1000 137.000 2 38 990 19.0000 137.200 TS 35 990 4 277
1991274N14149 1991 74 WP MM ORCHID 1991-10-04 15:00:00 TS 19.0893 136.892 main 1443 1425 PPPP__________ WP231991 19.0926 137.037 42 0 19.1074 136.755 3 42 987 0 9 240 240 19.1073 136.797 2 38 990 19.0499 136.977 TS 37 987 4 274
1991274N14149 1991 74 WP MM ORCHID 1991-10-04 18:00:00 TS 19.1000 136.700 45 985 tokyo main 1425 1416 OOOO__________ jtwc_wp WP231991 19.1000 136.700 45 0 19.1000 136.600 3 45 985 0 9 240 240 0 19.1000 136.700 2 38 990 19.1000 136.800 TS 40 985 3 275
1991274N14149 1991 74 WP MM ORCHID 1991-10-04 21:00:00 TS 19.1174 136.570 main 1416 1399 PPPP__________ WP231991 19.1499 136.443 47 0 19.0849 136.557 3 47 985 0 9 240 240 19.0849 136.615 2 43 987 19.1499 136.665 TS 42 982 3 281
1991274N14149 1991 74 WP MM ORCHID 1991-10-05 00:00:00 TS 19.1500 136.425 50 985 tokyo main 1404 1387 OOOO__________ jtwc_wp WP231991 19.2000 136.200 50 0 19.1000 136.500 4 50 985 0 9 240 240 0 19.1000 136.500 3 48 985 19.2000 136.500 TS 45 980 4 286
1991274N14149 1991 74 WP MM ORCHID 1991-10-05 03:00:00 TS 19.2180 136.206 main 1387 1366 PPPP__________ WP231991 19.2074 135.957 52 0 19.1998 136.318 4 50 985 0 9 240 240 19.1998 136.310 3 48 985 19.2650 136.238 TS 47 977 5 284
1991274N14149 1991 74 WP MM ORCHID 1991-10-05 06:00:00 TS 19.2750 135.900 50 985 tokyo main 1366 1327 OOOO__________ jtwc_wp WP231991 19.2000 135.700 55 0 19.3000 136.000 4 50 985 0 9 240 240 0 19.3000 136.000 3 48 985 19.3000 135.900 STS 50 975 7 275
1991274N14149 1991 74 WP MM ORCHID 1991-10-05 09:00:00 TS 19.2776 135.490 main 1327 1290 PPPP__________ WP231991 19.2074 135.423 57 0 19.3153 135.507 4 50 985 0 9 240 240 19.3228 135.507 3 48 985 19.2649 135.522 STS 52 972 8 268
1991274N14149 1991 74 WP MM ORCHID 1991-10-05 12:00:00 TS 19.2500 135.050 50 985 tokyo main 1290 1247 OOOO__________ jtwc_wp WP231991 19.2000 135.100 60 0 19.3000 135.000 4 50 985 0 9 240 240 0 19.3000 135.000 3 48 985 19.2000 135.100 STS 55 970 8 266
1991274N14149 1991 74 WP MM ORCHID 1991-10-05 15:00:00 TS 19.2199 134.669 main 1247 1210 PPPP__________ WP231991 19.1575 134.707 62 0 19.3148 134.670 4 52 982 0 9 240 240 19.2573 134.670 3 53 982 19.1501 134.628 STS 57 967 7 264
1991274N14149 1991 74 WP MM ORCHID 1991-10-05 18:00:00 TS 19.1750 134.325 55 980 tokyo main 1210 1177 OOOO__________ jtwc_wp WP231991 19.1000 134.300 65 1 19.3000 134.400 4 55 980 9 40 40 9 240 240 0 19.2000 134.400 3 58 980 19.1000 134.200 STS 60 965 6 260
1991274N14149 1991 74 WP MM ORCHID 1991-10-05 21:00:00 TS 19.1143 134.021 main 1177 1149 PPPP__________ WP231991 19.0499 133.935 67 1 19.2074 134.107 4 57 977 9 60 60 9 240 240 19.1499 134.108 3 58 980 19.0497 133.935 STS 60 965 6 258
1991274N14149 1991 74 WP MM ORCHID 1991-10-06 00:00:00 TS 19.0500 133.725 60 975 tokyo main 1149 1116 OOOO__________ jtwc_wp WP231991 19.0000 133.600 70 1 19.1000 133.800 4 60 975 9 80 80 9 240 240 0 19.1000 133.800 3 58 980 19.0000 133.700 STS 60 965 6 259
1991274N14149 1991 74 WP MM ORCHID 1991-10-06 03:00:00 TS 18.9925 133.386 main 1116 1089 PPPP__________ WP231991 18.9349 133.292 75 1 19.0425 133.450 4 65 970 9 90 90 9 270 270 19.0500 133.450 3 63 975 18.9426 133.350 STS 62 962 6 261
1991274N14149 1991 74 WP MM ORCHID 1991-10-06 06:00:00 TS 18.9500 133.050 70 965 tokyo main 1089 1056 OOOO__________ jtwc_wp WP231991 18.9000 133.000 80 1 19.0000 133.100 5 70 965 9 100 100 9 300 300 0 19.0000 133.100 4 68 970 18.9000 133.000 T 65 960 6 264
1991274N14149 1991 74 WP MM ORCHID 1991-10-06 09:00:00 TS 18.9243 132.753 main 1056 1029 PPPP__________ WP231991 18.9350 132.693 85 2 18.9349 132.792 5 72 960 9 110 110 9 300 300 18.9349 132.792 4 72 965 18.8924 132.735 T 70 955 5 267
1991274N14149 1991 74 WP MM ORCHID 1991-10-06 12:00:00 TS 18.9250 132.475 75 955 tokyo main 1029 1002 OOOO__________ jtwc_wp WP231991 19.0000 132.400 90 2 18.9000 132.500 5 75 955 9 120 120 9 300 300 0 18.9000 132.500 4 77 960 18.9000 132.500 T 75 950 5 273
1991274N14149 1991 74 WP MM ORCHID 1991-10-06 15:00:00 TS 18.9512 132.193 main 1008 982 PPPP__________ WP231991 19.0424 132.142 95 2 18.9350 132.185 5 80 950 9 125 125 9 325 325 18.9350 132.193 4 82 955 18.8925 132.250 T 80 945 5 278
1991274N14149 1991 74 WP MM ORCHID 1991-10-06 18:00:00 TS 19.0000 131.925 85 945 tokyo main 982 965 OOOO__________ jtwc_wp WP231991 19.1000 131.900 100 3 19.0000 131.900 5 85 945 9 130 130 9 350 350 0 19.0000 131.900 5 87 950 18.9000 132.000 ST 85 940 5 281
1991274N14149 1991 74 WP MM ORCHID 1991-10-06 21:00:00 TS 19.0456 131.676 main 965 954 PPPP__________ WP231991 19.1925 131.643 105 3 19.0349 131.685 5 85 942 9 130 130 9 362 362 19.0350 131.627 5 87 947 18.9200 131.750 ST 90 937 5 286
1991274N14149 1991 74 WP MM ORCHID 1991-10-07 00:00:00 TS 19.1250 131.450 85 940 tokyo main 954 936 OOOO__________ jtwc_wp WP231991 19.3000 131.400 110 3 19.1000 131.500 5 85 940 9 130 130 9 375 375 0 19.1000 131.400 5 87 945 19.0000 131.500 ST 95 935 5 296
1991274N14149 1991 74 WP MM ORCHID 1991-10-07 03:00:00 TS 19.2506 131.235 main 941 931 PPPP__________ WP231991 19.3925 131.185 112 3 19.2200 131.292 5 87 937 9 130 130 9 375 375 19.2199 131.235 5 87 942 19.1700 131.228 ST 97 932 5 309
1991274N14149 1991 74 WP MM ORCHID 1991-10-07 06:00:00 TS 19.4250 131.050 90 935 tokyo main 932 914 OOOO__________ jtwc_wp WP231991 19.5000 131.000 115 4 19.4000 131.100 5 90 935 9 130 130 9 375 375 0 19.4000 131.100 5 87 940 19.4000 131.000 SuperT 100 930 5 321
1991274N14149 1991 74 WP MM ORCHID 1991-10-07 09:00:00 TS 19.6406 130.901 main 914 905 PPPP__________ WP231991 19.6275 130.827 112 3 19.6425 130.943 5 92 932 9 140 140 9 375 375 19.6425 130.950 5 92 935 19.6499 130.885 SuperT 97 932 5 330
1991274N14149 1991 74 WP MM ORCHID 1991-10-07 12:00:00 TS 19.8750 130.775 95 930 tokyo main 908 891 OOOO__________ jtwc_wp WP231991 19.8000 130.700 110 3 19.9000 130.800 5 95 930 9 150 150 9 375 375 0 19.9000 130.800 5 97 930 19.9000 130.800 ST 95 935 5 331
1991274N14149 1991 74 WP MM ORCHID 1991-10-07 15:00:00 TS 20.0838 130.641 main 891 886 PPPP__________ WP231991 20.0350 130.642 110 3 20.1000 130.635 5 95 930 9 150 150 9 375 375 20.1000 130.635 5 97 930 20.1000 130.650 ST 92 937 5 331
1991274N14149 1991 74 WP MM ORCHID 1991-10-07 18:00:00 TS 20.3000 130.525 95 930 tokyo main 886 881 OOOO__________ jtwc_wp WP231991 20.3000 130.600 110 3 20.3000 130.500 5 95 930 9 150 150 9 375 375 0 20.3000 130.500 5 97 930 20.3000 130.500 ST 90 940 5 337
1991274N14149 1991 74 WP MM ORCHID 1991-10-07 21:00:00 TS 20.5350 130.433 main 881 881 PPPP__________ WP231991 20.5425 130.485 110 3 20.5350 130.435 5 95 930 9 150 150 9 375 375 20.5275 130.435 5 97 930 20.5350 130.378 ST 87 940 5 344
1991274N14149 1991 74 WP MM ORCHID 1991-10-08 00:00:00 TS 20.8000 130.375 95 930 tokyo main 889 883 OOOO__________ jtwc_wp WP231991 20.8000 130.400 110 3 20.8000 130.400 5 95 930 9 150 150 9 375 375 0 20.8000 130.400 5 97 930 20.8000 130.300 ST 85 940 6 351
1991274N14149 1991 74 WP MM ORCHID 1991-10-08 03:00:00 TS 21.0925 130.334 main 889 889 PPPP__________ WP231991 21.0775 130.420 107 3 21.0727 130.319 5 95 930 9 150 150 9 375 375 21.1350 130.328 5 97 930 21.0850 130.270 ST 82 942 6 358
1991274N14149 1991 74 WP MM ORCHID 1991-10-08 06:00:00 TS 21.4250 130.350 95 930 tokyo main 900 900 OOOO__________ jtwc_wp WP231991 21.4000 130.500 105 3 21.4000 130.300 5 95 930 9 150 150 9 375 375 0 21.5000 130.300 5 97 930 21.4000 130.300 T 80 945 7 6
1991274N14149 1991 74 WP MM ORCHID 1991-10-08 09:00:00 TS 21.7850 130.424 95 930 tokyo main 919 915 POPP__________ WP231991 21.7775 130.578 105 3 21.8000 130.400 5 95 930 9 150 150 4 350 325 0 21.8349 130.355 5 97 930 21.7275 130.363 T 80 945 8 14
1991274N14149 1991 74 WP MM ORCHID 1991-10-08 12:00:00 TS 22.1500 130.550 95 930 tokyo main 924 917 OOOO__________ jtwc_wp WP231991 22.2000 130.700 105 3 22.1000 130.500 5 95 930 9 150 150 4 350 325 0 22.2000 130.500 5 97 930 22.1000 130.500 T 80 945 8 19
1991274N14149 1991 74 WP MM ORCHID 1991-10-08 15:00:00 TS 22.5762 130.724 95 930 tokyo main 921 893 POPP__________ WP231991 22.6349 130.863 102 3 22.5000 130.600 5 95 930 9 150 150 4 350 325 0 22.6350 130.713 5 92 935 22.5350 130.720 T 80 945 10 27
1991274N14149 1991 74 WP MM ORCHID 1991-10-08 18:00:00 TS 23.0250 131.025 90 935 tokyo main 893 839 OOOO__________ jtwc_wp WP231991 23.1000 131.100 100 3 22.9000 131.000 5 90 935 9 150 150 4 350 325 0 23.1000 131.000 5 87 940 23.0000 131.000 T 80 945 11 32
1991274N14149 1991 74 WP MM ORCHID 1991-10-08 21:00:00 TS 23.4962 131.358 90 935 tokyo main 840 787 POPP__________ WP231991 23.6000 131.427 100 3 23.4000 131.400 5 90 935 9 150 150 4 350 325 0 23.5425 131.328 5 87 940 23.4424 131.278 T 80 945 12 32
1991274N14149 1991 74 WP MM ORCHID 1991-10-09 00:00:00 TS 24.0000 131.700 90 935 tokyo main 787 747 OOOO__________ jtwc_wp WP231991 24.1000 131.800 100 3 24.0000 131.700 5 90 935 9 140 140 9 350 350 0 24.0000 131.700 5 87 940 23.9000 131.600 T 80 945 12 34
1991274N14149 1991 74 WP MM ORCHID 1991-10-09 03:00:00 TS 24.4681 132.086 90 935 tokyo main 738 701 POPP__________ WP231991 24.5649 132.150 97 3 24.4000 132.100 5 90 935 9 140 140 9 350 350 0 24.5075 132.100 5 87 942 24.4001 131.992 T 80 945 12 36
1991274N14149 1991 74 WP MM ORCHID 1991-10-09 06:00:00 TS 24.9750 132.475 85 940 tokyo main 692 658 OOOO__________ jtwc_wp WP231991 25.0000 132.500 95 2 25.0000 132.500 5 85 940 9 140 140 9 350 350 0 25.0000 132.500 5 87 945 24.9000 132.400 T 80 945 12 36
1991274N14149 1991 74 WP MM ORCHID 1991-10-09 09:00:00 TS 25.4043 132.841 85 940 tokyo main 658 629 POPP__________ WP231991 25.4148 132.835 92 2 25.4000 132.900 5 85 940 9 140 140 9 350 350 0 25.4224 132.873 5 82 950 25.3799 132.758 T 80 945 11 38
1991274N14149 1991 74 WP MM ORCHID 1991-10-09 12:00:00 TS 25.8000 133.200 85 940 tokyo main 629 611 OOOO__________ jtwc_wp WP231991 25.8000 133.200 90 2 25.8000 133.300 5 85 940 9 140 140 9 350 350 0 25.8000 133.200 4 77 955 25.8000 133.100 T 80 945 10 40
1991274N14149 1991 74 WP MM ORCHID 1991-10-09 15:00:00 TS 26.1361 133.528 85 945 tokyo main 611 585 POPP__________ WP231991 26.1651 133.650 87 2 26.1000 133.600 5 85 945 9 130 130 9 350 350 0 26.1645 133.421 4 77 955 26.1149 133.443 T 80 945 9 41
1991274N14149 1991 74 WP MM ORCHID 1991-10-09 18:00:00 TS 26.5000 133.875 80 950 tokyo main 591 582 OOOO__________ jtwc_wp WP231991 26.5000 134.100 85 2 26.6000 133.900 5 80 950 9 120 120 9 350 350 0 26.5000 133.700 4 77 955 26.4000 133.800 T 80 945 10 49
1991274N14149 1991 74 WP MM ORCHID 1991-10-09 21:00:00 TS 26.7645 134.331 80 950 tokyo main 584 576 POPP__________ WP231991 26.8073 134.465 82 1 26.7000 134.400 5 80 950 9 120 120 9 350 350 0 26.8007 134.257 4 77 955 26.7500 134.200 T 77 947 10 54
1991274N14149 1991 74 WP MM ORCHID 1991-10-10 00:00:00 TS 27.0750 134.750 75 955 tokyo main 582 566 OOOO__________ jtwc_wp WP231991 27.1000 134.800 80 1 27.0000 134.800 5 75 955 9 100 100 4 400 270 0 27.1000 134.800 4 77 955 27.1000 134.600 T 75 950 9 43
1991274N14149 1991 74 WP MM ORCHID 1991-10-10 03:00:00 TS 27.4411 135.046 75 955 tokyo main 566 552 POPP__________ WP231991 27.4075 135.165 80 1 27.5000 135.000 5 75 955 9 100 100 4 400 270 0 27.4496 135.046 4 72 960 27.4074 134.973 T 75 950 8 36
1991274N14149 1991 74 WP MM ORCHID 1991-10-10 06:00:00 TS 27.7500 135.300 75 960 tokyo main 550 547 OOOO__________ jtwc_wp WP231991 27.7000 135.500 80 1 27.8000 135.200 5 75 960 9 100 100 4 450 270 0 27.8000 135.200 4 68 965 27.7000 135.300 T 75 950 7 39
1991274N14149 1991 74 WP MM ORCHID 1991-10-10 09:00:00 TS 28.0143 135.566 75 960 tokyo main 554 546 POPP__________ WP231991 27.9499 135.773 77 1 28.0000 135.500 5 75 960 9 100 100 4 450 270 0 28.1149 135.435 4 68 965 27.9923 135.558 T 75 950 7 40
1991274N14149 1991 74 WP MM ORCHID 1991-10-10 12:00:00 TS 28.3000 135.825 75 960 tokyo main 546 536 OOOO__________ jtwc_wp WP231991 28.2000 136.000 75 1 28.3000 135.800 5 75 960 9 100 100 4 400 300 0 28.4000 135.700 4 68 965 28.3000 135.800 T 75 950 7 38
1991274N14149 1991 74 WP MM ORCHID 1991-10-10 15:00:00 TS 28.5944 136.084 75 960 tokyo main 536 504 POPP__________ WP231991 28.4925 136.223 75 1 28.6000 136.000 5 75 960 9 100 100 4 400 350 0 28.6425 136.000 4 68 965 28.6426 136.115 T 75 950 8 38
1991274N14149 1991 74 WP MM ORCHID 1991-10-10 18:00:00 TS 28.9000 136.350 75 960 tokyo main 505 473 OOOO__________ jtwc_wp WP231991 28.8000 136.400 75 1 28.9000 136.300 5 75 960 9 100 100 4 400 350 0 28.9000 136.300 4 68 965 29.0000 136.400 T 75 950 8 34
1991274N14149 1991 74 WP MM ORCHID 1991-10-10 21:00:00 TS 29.2306 136.569 75 960 tokyo main 474 432 POPP__________ WP231991 29.0999 136.515 72 1 29.2000 136.600 5 75 960 9 100 100 4 400 350 0 29.2425 136.580 4 68 965 29.3799 136.580 T 70 952 8 26
1991274N14149 1991 74 WP MM ORCHID 1991-10-11 00:00:00 TS 29.5750 136.725 75 960 tokyo main 432 401 OOOO__________ jtwc_wp WP231991 29.4000 136.600 70 1 29.6000 136.800 5 75 960 9 100 100 9 375 375 0 29.6000 136.800 4 68 965 29.7000 136.700 T 65 955 7 20
1991274N14149 1991 74 WP MM ORCHID 1991-10-11 03:00:00 TS 29.8737 136.834 75 960 tokyo main 401 382 POPP__________ WP231991 29.7075 136.693 70 1 30.0000 136.900 5 75 960 9 120 120 9 375 375 0 29.9074 136.938 4 63 970 29.8800 136.808 T 62 957 6 17
1991274N14149 1991 74 WP MM ORCHID 1991-10-11 06:00:00 TS 30.1250 136.925 75 960 tokyo main 382 363 OOOO__________ jtwc_wp WP231991 30.0000 136.800 70 1 30.3000 137.000 5 75 960 9 120 120 9 400 400 0 30.2000 137.000 3 58 975 30.0000 136.900 STS 60 960 5 14
1991274N14149 1991 74 WP MM ORCHID 1991-10-11 09:00:00 TS 30.3575 136.976 75 960 tokyo main 353 332 POPP__________ WP231991 30.2649 136.928 67 1 30.5000 137.000 5 75 960 9 120 120 9 400 400 0 30.5225 136.993 3 58 975 30.1424 136.985 STS 57 962 5 12
1991274N14149 1991 74 WP MM ORCHID 1991-10-11 12:00:00 TS 30.6000 137.050 75 960 tokyo main 335 314 OOOO__________ jtwc_wp WP231991 30.5000 137.100 65 1 30.8000 137.000 5 75 960 9 120 120 9 400 400 0 30.8000 137.000 3 58 975 30.3000 137.100 STS 55 965 5 22
1991274N14149 1991 74 WP MM ORCHID 1991-10-11 15:00:00 TS 30.7950 137.179 70 960 tokyo main 318 312 POPP__________ WP231991 30.7075 137.328 65 1 31.0000 137.000 5 70 960 4 140 100 9 400 400 0 30.9799 137.105 3 58 975 30.4925 137.285 STS 52 965 5 43
1991274N14149 1991 74 WP MM ORCHID 1991-10-11 18:00:00 TS 30.9500 137.425 65 960 tokyo main 306 306 OOOO__________ jtwc_wp WP231991 30.9000 137.600 65 1 31.1000 137.300 5 65 960 4 130 110 4 400 300 0 31.1000 137.300 3 58 975 30.7000 137.500 STS 50 965 5 54
1991274N14149 1991 74 WP MM ORCHID 1991-10-11 21:00:00 TS 31.0906 137.660 65 960 tokyo main 312 308 POPP__________ WP231991 31.0999 137.885 62 0 31.2000 137.500 5 65 960 4 130 90 4 400 300 0 31.1776 137.578 3 58 975 30.8848 137.678 STS 47 967 6 59
1991274N14149 1991 74 WP MM ORCHID 1991-10-12 00:00:00 TS 31.2500 138.000 60 965 tokyo main 312 308 OOOO__________ jtwc_wp WP231991 31.3000 138.200 60 0 31.3000 138.000 4 60 965 9 90 90 4 350 300 0 31.3000 137.900 3 58 975 31.1000 137.900 TS 45 970 7 51
1991274N14149 1991 74 WP MM ORCHID 1991-10-12 03:00:00 TS 31.5211 138.278 60 965 tokyo main 315 308 POPP__________ WP231991 31.4998 138.528 60 0 31.6000 138.200 4 60 965 9 90 90 4 350 300 0 31.5847 138.170 3 58 975 31.3999 138.212 TS 45 970 8 46
1991274N14149 1991 74 WP MM ORCHID 1991-10-12 06:00:00 TS 31.8000 138.675 60 965 tokyo main 312 290 OOOO__________ jtwc_wp WP231991 31.7000 138.900 60 0 31.9000 138.700 4 60 965 9 90 90 4 350 300 0 31.9000 138.500 3 58 975 31.7000 138.600 TS 45 970 8 53
1991274N14149 1991 74 WP MM ORCHID 1991-10-12 09:00:00 TS 31.9960 139.017 60 965 tokyo main 290 273 POPP__________ WP231991 31.8847 139.313 57 0 32.1000 138.800 4 60 965 9 90 90 4 350 300 0 32.0999 138.956 3 58 975 31.8995 138.998 TS 42 970 8 61
1991274N14149 1991 74 WP MM ORCHID 1991-10-12 12:00:00 TS 32.2000 139.525 60 970 tokyo main 275 263 OOOO__________ jtwc_wp WP231991 32.1000 139.800 55 0 32.3000 139.300 4 60 970 9 90 90 4 350 300 0 32.3000 139.500 3 58 975 32.1000 139.500 TS 40 970 10 63
1991274N14149 1991 74 WP MM ORCHID 1991-10-12 15:00:00 TS 32.4675 140.095 60 970 tokyo main 263 245 POPP__________ WP231991 32.3619 140.341 55 0 32.6000 139.900 4 60 970 9 90 90 4 350 300 0 32.5537 140.019 3 53 977 32.3543 140.119 TS 40 972 12 61
1991274N14149 1991 74 WP MM ORCHID 1991-10-12 18:00:00 TS 32.7800 140.787 60 970 tokyo main 248 243 OOOO__________ jtwc_wp WP231991 32.7000 141.000 55 0 32.8000 140.600 4 60 970 9 80 80 4 350 300 0 32.9000 140.700 3 48 980 32.7000 140.900 TS 40 975 16 62
1991274N14149 1991 74 WP MM ORCHID 1991-10-12 21:00:00 TS 33.2021 141.761 60 975 tokyo main 257 252 POPP__________ WP231991 33.1266 141.805 55 0 33.2000 141.700 4 60 975 9 75 75 4 350 300 0 33.3262 141.706 3 48 980 33.1177 141.857 TS 40 975 20 60
1991274N14149 1991 74 WP MM ORCHID 1991-10-13 00:00:00 TS 33.7846 142.885 60 975 tokyo main 276 275 OOOO__________ jtwc_wp WP231991 33.6000 142.700 55 0 33.8000 143.000 4 60 975 3 75 60 3 350 280 0 33.9000 142.800 3 48 980 33.7000 142.900 TS 40 975 21 52
1991274N14149 1991 74 WP MM ORCHID 1991-10-13 03:00:00 TS 34.5015 143.761 60 975 tokyo main 295 295 _OPP__________ WP231991 -1 34.4000 143.700 4 60 975 3 75 60 3 350 280 0 34.6305 143.688 3 48 980 34.4741 143.894 TS 40 975 23 42
1991274N14149 1991 74 WP MM ORCHID 1991-10-13 06:00:00 TS 35.4667 144.733 55 980 tokyo main 343 343 _OOO__________ -1 35.5000 144.700 4 55 980 3 60 50 3 350 280 0 35.5000 144.600 3 48 980 35.4000 144.900 TS 40 975 25 40
1991274N14149 1991 74 WP MM ORCHID 1991-10-13 09:00:00 TS 36.4115 145.761 55 980 tokyo main 432 428 _OPP__________ -1 36.5000 145.700 4 55 980 9 50 50 3 350 280 0 36.3969 145.693 3 48 980 36.3377 145.889 TS 40 975 26 42
1991274N14149 1991 74 WP MM ORCHID 1991-10-13 12:00:00 TS 37.4000 146.927 55 980 tokyo main 477 477 _OOO__________ -1 37.4000 146.900 4 55 980 9 50 50 3 350 280 0 37.4000 146.900 3 48 980 37.4000 147.000 TS 40 975 29 43
1991274N14149 1991 74 WP MM ORCHID 1991-10-13 15:00:00 TS 38.5097 148.196 55 980 tokyo main 537 511 _OPP__________ -1 38.5000 148.100 4 55 980 9 50 50 3 350 280 0 38.4679 148.210 3 48 980 38.6126 148.358 TS 37 975 31 42
1991274N14149 1991 74 WP MM ORCHID 1991-10-13 18:00:00 MX 39.7222 149.589 55 980 tokyo main 517 482 _OOO__________ -1 39.7000 149.600 4 55 980 9 50 50 3 350 280 0 39.7000 149.500 9 48 980 39.9000 149.900 TS 35 975 31 36
1991274N14149 1991 74 WP MM ORCHID 1991-10-13 21:00:00 MX 41.0104 150.580 50 980 tokyo main 483 366 _OP___________ -1 40.9000 150.600 4 50 980 0 3 350 280 0 41.1207 150.559 9 48 980 TS 34 28
1991274N14149 1991 74 WP MM ORCHID 1991-10-14 00:00:00 MX 42.7000 151.700 45 980 tokyo main 359 325 _OO___________ -1 42.7000 151.700 3 45 980 0 4 350 280 0 42.7000 151.700 9 48 980 39 35
1991274N14149 1991 74 WP MM ORCHID 1991-10-14 03:00:00 ET 44.2117 153.605 976 tokyo main 326 319 _OP___________ -1 44.0000 154.000 6 976 0 0 0 44.4234 153.211 9 43 977 41 36
1991274N14149 1991 74 WP MM ORCHID 1991-10-14 06:00:00 ET 46.0000 155.000 972 tokyo main 353 335 _OO___________ -1 46.0000 155.000 6 972 0 0 0 46.0000 155.000 9 38 975 37 38
1991274N14149 1991 74 WP MM ORCHID 1991-10-14 09:00:00 ET 47.1414 156.860 main 340 323 _PP___________ -1 47.1400 156.813 6 972 0 0 47.1442 156.953 9 38 975 34 54
1991274N14149 1991 74 WP MM ORCHID 1991-10-14 12:00:00 ET 48.0000 159.000 972 tokyo main 331 314 _OO___________ -1 48.0000 159.000 6 972 0 0 0 48.0000 159.000 9 38 975 37 49
1991274N14149 1991 74 WP MM ORCHID 1991-10-14 15:00:00 ET 49.5713 160.984 main 310 305 _P____________ -1 49.5713 160.984 6 972 0 0 9 40 41
1991274N14149 1991 74 WP MM ORCHID 1991-10-14 18:00:00 ET 51.0000 163.000 972 tokyo main 305 301 _O____________ -1 51.0000 163.000 6 972 0 0 0 33 51
1991274N14149 1991 74 WP MM ORCHID 1991-10-14 21:00:00 ET 51.6459 165.023 main 370 370 _P____________ -1 51.6459 165.023 6 972 0 0 27 68
1991274N14149 1991 74 WP MM ORCHID 1991-10-15 00:00:00 ET 52.0000 167.000 972 tokyo main 440 440 _O____________ -1 52.0000 167.000 6 972 0 0 0 25 71
1991274N14149 1991 74 WP MM ORCHID 1991-10-15 03:00:00 ET 52.4927 168.933 main 508 508 _P____________ -1 52.4927 168.933 6 974 0 0 26 68
1991274N14149 1991 74 WP MM ORCHID 1991-10-15 06:00:00 ET 53.0000 171.000 976 tokyo main 601 601 _O____________ -1 53.0000 171.000 6 976 0 0 0 29 70
1991274N14149 1991 74 WP MM ORCHID 1991-10-15 09:00:00 ET 53.4993 173.429 main 702 702 _P____________ -1 53.4993 173.429 6 976 0 0 31 71
1991274N14149 1991 74 WP MM ORCHID 1991-10-15 12:00:00 ET 54.0000 176.000 976 tokyo main 737 736 _O____________ -1 54.0000 176.000 6 976 0 0 0 31 71
1991274N14149 1991 74 WP MM ORCHID 1991-10-15 15:00:00 ET 54.5075 178.513 main 772 702 _P____________ -1 54.5075 178.513 6 976 0 0 31 71
1991274N14149 1991 74 EP CP ORCHID 1991-10-15 18:00:00 ET 55.0000 181.000 main 696 _O____________ -1 55.0000 181.000 6 976 0 0 0 30 71

デジタル台風データ・検索

IBTrACS Databaseについて

本データベースは、米国NOAAが公開する1842年以降の世界の熱帯低気圧のベストトラックデータアーカイブInternational Best Track Archive for Climate Stewardship (IBTrACS)を、ウェブで閲覧しやすい形式に変換したものです。

最終更新日:2021-12-06